Time;durP1;ratioP1;P1;durP2;ratioP2;P2;SDS_P1;SDS_P2;PMS_P1;PMS_P2;Temp;Humidity;BMP_temperature;BMP_pressure;BME280_temperature;BME280_humidity;BME280_pressure;Samples;Min_cycle;Max_cycle;Signal;HPM_P1;HPM_P2
2023/07/25 00:00:26;;;;;;;7.30;1.77;;;19.90;94.60;;;;;;5091247;28;20040;-67
2023/07/25 00:02:51;;;;;;;5.20;1.70;;;19.80;94.40;;;;;;5074869;28;20029;-66
2023/07/25 00:05:17;;;;;;;6.07;1.55;;;19.90;94.40;;;;;;5072505;28;20403;-67
2023/07/25 00:07:42;;;;;;;8.13;2.10;;;19.90;94.40;;;;;;5074049;28;20531;-67
2023/07/25 00:10:08;;;;;;;4.97;1.67;;;19.80;94.60;;;;;;5072898;28;20516;-67
2023/07/25 00:12:35;;;;;;;4.53;1.58;;;19.80;94.50;;;;;;5072176;28;20051;-67
2023/07/25 00:15:01;;;;;;;10.20;2.13;;;19.90;94.30;;;;;;5071484;28;20028;-67
2023/07/25 00:17:27;;;;;;;7.00;1.70;;;19.90;94.30;;;;;;5072796;28;20108;-67
2023/07/25 00:19:52;;;;;;;7.25;1.90;;;19.80;94.40;;;;;;5071169;28;20124;-67
2023/07/25 00:22:18;;;;;;;5.03;1.80;;;19.70;94.40;;;;;;5072514;28;20400;-67
2023/07/25 00:24:43;;;;;;;5.78;1.58;;;19.80;94.50;;;;;;5072542;28;20499;-67
2023/07/25 00:27:09;;;;;;;4.35;1.83;;;19.80;94.80;;;;;;5072636;28;20537;-67
2023/07/25 00:29:34;;;;;;;6.25;1.95;;;19.80;94.70;;;;;;5072871;28;20473;-67
2023/07/25 00:32:00;;;;;;;6.32;1.98;;;19.70;94.50;;;;;;5072996;28;20484;-68
2023/07/25 00:34:25;;;;;;;6.55;1.98;;;19.60;94.40;;;;;;5072359;28;20055;-67
2023/07/25 00:36:51;;;;;;;4.82;1.83;;;19.70;94.40;;;;;;5072797;28;20060;-67
2023/07/25 00:39:17;;;;;;;9.02;2.28;;;19.70;94.50;;;;;;5072815;28;20385;-68
2023/07/25 00:41:42;;;;;;;6.10;2.20;;;19.70;94.50;;;;;;5072763;28;20031;-67
2023/07/25 00:44:08;;;;;;;6.18;2.00;;;19.70;94.60;;;;;;5072782;28;20044;-67
2023/07/25 00:46:34;;;;;;;7.68;2.40;;;19.70;94.50;;;;;;5072618;28;20038;-67
2023/07/25 00:49:01;;;;;;;8.95;2.80;;;19.70;94.60;;;;;;5072541;28;20078;-67
2023/07/25 00:51:27;;;;;;;5.40;2.03;;;19.70;94.60;;;;;;5072663;28;20028;-67
2023/07/25 00:53:54;;;;;;;4.80;2.35;;;19.60;94.70;;;;;;5072790;28;20024;-67
2023/07/25 00:56:20;;;;;;;6.20;2.60;;;19.60;94.80;;;;;;5072288;28;20110;-67
2023/07/25 00:58:46;;;;;;;9.18;2.58;;;19.60;94.70;;;;;;5072434;28;20064;-67
2023/07/25 01:01:12;;;;;;;7.10;2.40;;;19.80;94.50;;;;;;5072437;28;20040;-67
2023/07/25 01:03:38;;;;;;;9.65;2.97;;;19.60;94.70;;;;;;5072307;28;20021;-67
2023/07/25 01:06:09;;;;;;;7.30;1.98;;;19.60;94.90;;;;;;5072501;28;20089;-67
2023/07/25 01:08:50;;;;;;;5.05;2.03;;;19.60;94.70;;;;;;5075732;28;20020;-67
2023/07/25 01:11:16;;;;;;;6.35;1.95;;;19.60;94.90;;;;;;5075986;28;20025;-67
2023/07/25 01:13:42;;;;;;;8.98;2.17;;;19.60;94.90;;;;;;5076115;28;20024;-67
2023/07/25 01:16:09;;;;;;;5.28;2.08;;;19.70;95.00;;;;;;5075885;28;20104;-67
2023/07/25 01:18:36;;;;;;;5.25;1.70;;;19.70;94.90;;;;;;5075696;28;20466;-67
2023/07/25 01:21:02;;;;;;;6.88;1.60;;;19.60;95.20;;;;;;5076134;28;20036;-67
2023/07/25 01:23:29;;;;;;;7.68;1.92;;;19.70;95.30;;;;;;5076342;28;20013;-68
2023/07/25 01:25:54;;;;;;;7.90;2.03;;;19.60;95.20;;;;;;5076358;28;20025;-67
2023/07/25 01:28:20;;;;;;;4.47;2.20;;;19.70;95.10;;;;;;5075743;28;20031;-67
2023/07/25 01:30:45;;;;;;;5.88;1.95;;;19.70;95.10;;;;;;5074600;28;20056;-71
2023/07/25 01:33:11;;;;;;;8.23;1.90;;;19.60;95.00;;;;;;5075463;28;20078;-71
2023/07/25 01:35:36;;;;;;;5.78;1.98;;;19.60;95.00;;;;;;5074395;28;20034;-71
2023/07/25 01:38:02;;;;;;;7.20;2.50;;;19.60;95.10;;;;;;5075292;28;20126;-69
2023/07/25 01:40:27;;;;;;;8.60;2.22;;;19.60;95.30;;;;;;5073920;28;20032;-70
2023/07/25 01:42:53;;;;;;;8.82;2.30;;;19.60;95.40;;;;;;5073639;28;20028;-71
2023/07/25 01:45:19;;;;;;;5.03;1.92;;;19.50;95.10;;;;;;5075297;28;20366;-67
2023/07/25 01:47:44;;;;;;;7.35;2.17;;;19.50;95.20;;;;;;5074011;28;20507;-70
2023/07/25 01:50:10;;;;;;;6.05;2.10;;;19.50;95.20;;;;;;5075431;28;20027;-71
2023/07/25 01:52:35;;;;;;;9.65;2.63;;;19.60;95.30;;;;;;5075282;28;20108;-70
2023/07/25 01:55:01;;;;;;;7.95;1.98;;;19.60;95.50;;;;;;5075349;28;20025;-67
2023/07/25 01:57:26;;;;;;;5.82;1.80;;;19.60;95.70;;;;;;5075327;28;20021;-70
2023/07/25 01:59:52;;;;;;;8.73;2.15;;;19.60;95.60;;;;;;5075026;28;20588;-69
2023/07/25 02:02:18;;;;;;;8.57;2.55;;;19.60;95.40;;;;;;5074799;28;20473;-72
2023/07/25 02:04:43;;;;;;;8.40;2.38;;;19.50;95.60;;;;;;5075076;28;20497;-71
2023/07/25 02:07:09;;;;;;;3.70;2.20;;;19.60;95.60;;;;;;5074991;28;20029;-69
2023/07/25 02:09:34;;;;;;;7.28;2.20;;;19.60;95.40;;;;;;5074971;28;20103;-71
2023/07/25 02:12:01;;;;;;;6.43;2.45;;;19.60;95.50;;;;;;5075219;28;20131;-71
2023/07/25 02:14:26;;;;;;;5.63;2.40;;;19.50;95.50;;;;;;5075102;28;20048;-71
2023/07/25 02:16:52;;;;;;;6.95;2.20;;;19.50;95.50;;;;;;5074550;28;20499;-67
2023/07/25 02:19:18;;;;;;;4.60;1.75;;;19.50;95.50;;;;;;5074876;28;20020;-67
2023/07/25 02:21:43;;;;;;;5.82;1.88;;;19.50;95.50;;;;;;5073475;28;20052;-67
2023/07/25 02:24:09;;;;;;;8.95;2.35;;;19.50;95.60;;;;;;5074720;28;20028;-67
2023/07/25 02:26:35;;;;;;;5.13;1.90;;;19.50;95.60;;;;;;5074679;28;20082;-67
2023/07/25 02:29:00;;;;;;;8.20;1.77;;;19.50;95.60;;;;;;5074367;28;20033;-67
2023/07/25 02:31:26;;;;;;;8.73;2.22;;;19.50;95.60;;;;;;5074237;28;20543;-71
2023/07/25 02:33:51;;;;;;;7.28;2.00;;;19.50;95.60;;;;;;5074579;28;20535;-72
2023/07/25 02:36:17;;;;;;;5.85;2.25;;;19.50;95.60;;;;;;5074298;28;20373;-71
2023/07/25 02:38:42;;;;;;;4.85;1.83;;;19.50;95.50;;;;;;5074317;28;20031;-71
2023/07/25 02:41:08;;;;;;;8.23;2.15;;;19.50;95.60;;;;;;5074425;28;20559;-71
2023/07/25 02:43:34;;;;;;;5.18;1.65;;;19.50;95.50;;;;;;5074270;28;20025;-71
2023/07/25 02:45:59;;;;;;;8.52;2.30;;;19.50;95.50;;;;;;5074038;28;20073;-67
2023/07/25 02:48:25;;;;;;;5.53;2.30;;;19.50;95.60;;;;;;5074036;28;20017;-67
2023/07/25 02:50:50;;;;;;;7.43;2.42;;;19.40;95.60;;;;;;5074195;28;20117;-67
2023/07/25 02:53:16;;;;;;;8.82;1.85;;;19.40;95.60;;;;;;5074090;28;20028;-68
2023/07/25 02:55:41;;;;;;;5.78;1.80;;;19.40;95.70;;;;;;5074089;28;20169;-67
2023/07/25 02:58:07;;;;;;;5.03;1.92;;;19.40;95.80;;;;;;5073959;28;20028;-67
2023/07/25 03:00:32;;;;;;;8.68;1.90;;;19.40;95.80;;;;;;5073445;28;20532;-67
2023/07/25 03:02:58;;;;;;;4.85;1.80;;;19.40;95.90;;;;;;5073928;28;20095;-67
2023/07/25 03:05:27;;;;;;;6.60;1.85;;;19.40;95.90;;;;;;5073970;28;20021;-67
2023/07/25 03:07:52;;;;;;;7.82;2.63;;;19.40;95.90;;;;;;5073747;28;20028;-67
2023/07/25 03:10:18;;;;;;;7.53;2.40;;;19.30;95.90;;;;;;5073949;28;20025;-67
2023/07/25 03:12:43;;;;;;;9.63;2.55;;;19.30;95.90;;;;;;5073605;28;20039;-67
2023/07/25 03:15:09;;;;;;;7.47;2.00;;;19.30;95.70;;;;;;5073569;28;20044;-71
2023/07/25 03:17:35;;;;;;;5.95;2.20;;;19.40;95.90;;;;;;5073597;28;20028;-71
2023/07/25 03:20:00;;;;;;;9.77;2.30;;;19.30;96.00;;;;;;5072329;28;20043;-70
2023/07/25 03:22:26;;;;;;;4.70;2.08;;;19.40;95.90;;;;;;5073479;28;20048;-71
2023/07/25 03:24:51;;;;;;;7.03;1.98;;;19.30;96.10;;;;;;5073445;28;20412;-71
2023/07/25 03:27:17;;;;;;;5.70;2.00;;;19.30;96.10;;;;;;5073630;28;20496;-71
2023/07/25 03:29:47;;;;;;;6.88;2.05;;;19.20;96.20;;;;;;5076255;28;20028;-69
2023/07/25 03:32:13;;;;;;;6.30;2.63;;;19.20;96.10;;;;;;5079752;28;20036;-67
2023/07/25 03:34:39;;;;;;;6.57;1.80;;;19.20;96.00;;;;;;5093368;28;20031;-67
2023/07/25 03:37:04;;;;;;;7.82;2.08;;;19.20;96.00;;;;;;5093527;28;20020;-68
2023/07/25 03:39:30;;;;;;;5.90;2.33;;;19.20;96.10;;;;;;5092837;28;20028;-67
2023/07/25 03:41:55;;;;;;;9.02;2.20;;;19.20;96.00;;;;;;5091887;28;20020;-67
2023/07/25 03:44:21;;;;;;;7.68;2.22;;;19.20;96.10;;;;;;5092682;28;20020;-67
2023/07/25 03:46:47;;;;;;;6.75;2.30;;;19.20;96.10;;;;;;5093796;28;20024;-67
2023/07/25 03:49:13;;;;;;;6.45;2.08;;;19.20;96.10;;;;;;5093184;28;20020;-71
2023/07/25 03:51:38;;;;;;;6.00;2.28;;;19.10;96.10;;;;;;5093133;28;20102;-71
2023/07/25 03:54:05;;;;;;;6.65;2.28;;;19.10;96.20;;;;;;5088951;28;20031;-69
2023/07/25 03:56:31;;;;;;;7.13;2.30;;;19.10;96.20;;;;;;5080665;28;20495;-69
2023/07/25 03:58:57;;;;;;;9.10;2.47;;;19.10;96.30;;;;;;5080711;28;20392;-71
2023/07/25 04:01:22;;;;;;;10.10;2.55;;;19.20;96.10;;;;;;5084978;28;20499;-67
2023/07/25 04:03:48;;;;;;;7.57;1.85;;;19.10;96.20;;;;;;5084683;28;20050;-67
2023/07/25 04:06:14;;;;;;;4.25;1.90;;;19.10;96.20;;;;;;5073007;28;20032;-67
2023/07/25 04:08:39;;;;;;;4.85;1.67;;;19.10;96.20;;;;;;5083760;28;20449;-67
2023/07/25 04:11:05;;;;;;;9.00;2.10;;;19.20;96.20;;;;;;5092969;28;20023;-67
2023/07/25 04:13:31;;;;;;;6.60;1.75;;;19.10;96.30;;;;;;5085871;28;20457;-67
2023/07/25 04:15:56;;;;;;;8.75;1.98;;;19.10;96.30;;;;;;5071767;28;20024;-71
2023/07/25 04:18:22;;;;;;;9.10;2.13;;;19.10;96.50;;;;;;5072378;28;20032;-70
2023/07/25 04:20:47;;;;;;;5.57;1.92;;;19.10;96.30;;;;;;5082642;28;20035;-69
2023/07/25 04:23:13;;;;;;;5.93;1.70;;;19.10;96.60;;;;;;5090864;28;20593;-70
2023/07/25 04:25:38;;;;;;;7.07;1.90;;;19.10;96.80;;;;;;5092191;28;20434;-71
2023/07/25 04:28:04;;;;;;;5.75;1.85;;;19.00;97.10;;;;;;5088533;28;20028;-70
2023/07/25 04:30:30;;;;;;;9.48;1.92;;;19.10;97.10;;;;;;5072820;28;20056;-67
2023/07/25 04:32:55;;;;;;;6.47;1.75;;;19.10;97.20;;;;;;5072814;28;20110;-67
2023/07/25 04:35:21;;;;;;;7.90;1.98;;;18.90;97.20;;;;;;5072676;28;20029;-67
2023/07/25 04:37:46;;;;;;;5.50;1.90;;;19.00;97.20;;;;;;5071639;28;20048;-67
2023/07/25 04:40:13;;;;;;;6.30;1.98;;;19.00;97.30;;;;;;5072290;28;20039;-67
2023/07/25 04:42:38;;;;;;;6.00;1.65;;;19.00;97.20;;;;;;5074821;28;20377;-67
2023/07/25 04:45:04;;;;;;;3.78;1.60;;;19.00;97.40;;;;;;5076485;28;20469;-66
2023/07/25 04:47:30;;;;;;;8.18;1.58;;;19.10;97.30;;;;;;5075274;28;20531;-66
2023/07/25 04:49:56;;;;;;;7.55;1.98;;;19.20;97.10;;;;;;5076757;28;20028;-67
2023/07/25 04:52:21;;;;;;;5.75;2.08;;;19.30;97.10;;;;;;5076486;28;20044;-66
2023/07/25 04:54:47;;;;;;;6.30;1.90;;;19.40;97.10;;;;;;5088284;28;20384;-66
2023/07/25 04:57:12;;;;;;;4.45;1.55;;;19.40;97.00;;;;;;5095789;28;20472;-66
2023/07/25 04:59:38;;;;;;;9.38;1.90;;;19.40;96.90;;;;;;5096255;28;20374;-66
2023/07/25 05:02:03;;;;;;;8.57;2.13;;;19.40;96.90;;;;;;5080888;28;20020;-66
2023/07/25 05:04:29;;;;;;;8.20;1.90;;;19.40;96.80;;;;;;5076008;28;20031;-66
2023/07/25 05:06:55;;;;;;;8.57;1.70;;;19.40;96.90;;;;;;5075798;28;20025;-67
2023/07/25 05:09:20;;;;;;;7.47;1.60;;;19.40;96.70;;;;;;5075743;28;20020;-66
2023/07/25 05:11:51;;;;;;;6.68;1.60;;;19.40;96.80;;;;;;5075965;28;20025;-67
2023/07/25 05:14:17;;;;;;;6.55;1.75;;;19.40;96.70;;;;;;5076051;28;20021;-66
2023/07/25 05:16:43;;;;;;;4.88;1.58;;;19.50;96.80;;;;;;5075757;28;20044;-67
2023/07/25 05:19:09;;;;;;;4.47;1.40;;;19.40;96.90;;;;;;5075909;28;20677;-67
2023/07/25 05:21:34;;;;;;;5.53;1.50;;;19.40;96.80;;;;;;5075892;28;20465;-66
2023/07/25 05:24:00;;;;;;;10.57;2.05;;;19.40;97.00;;;;;;5075535;28;20024;-66
2023/07/25 05:26:25;;;;;;;3.08;1.52;;;19.40;97.30;;;;;;5075766;28;20120;-67
2023/07/25 05:28:51;;;;;;;6.82;2.17;;;19.40;97.30;;;;;;5075766;28;20399;-66
2023/07/25 05:31:17;;;;;;;6.22;1.50;;;19.40;97.50;;;;;;5079045;28;20058;-66
2023/07/25 05:33:43;;;;;;;8.23;2.00;;;19.40;97.60;;;;;;5084400;28;20073;-66
2023/07/25 05:36:08;;;;;;;5.03;1.50;;;19.40;97.60;;;;;;5075241;28;20028;-66
2023/07/25 05:38:34;;;;;;;4.85;1.60;;;19.40;98.10;;;;;;5074789;28;20021;-67
2023/07/25 05:41:00;;;;;;;5.85;1.52;;;19.40;98.30;;;;;;5075372;28;20111;-66
2023/07/25 05:43:25;;;;;;;10.07;2.53;;;19.40;98.40;;;;;;5081947;28;20079;-67
2023/07/25 05:45:51;;;;;;;11.45;1.98;;;19.40;98.40;;;;;;5079899;28;20706;-71
2023/07/25 05:48:16;;;;;;;5.32;2.13;;;19.50;98.50;;;;;;5075159;28;20033;-70
2023/07/25 05:50:42;;;;;;;12.65;2.92;;;19.50;98.60;;;;;;5075266;28;20020;-73
2023/07/25 05:53:07;;;;;;;6.47;2.08;;;19.50;98.80;;;;;;5074703;28;20076;-71
2023/07/25 05:55:33;;;;;;;5.72;2.05;;;19.50;98.80;;;;;;5083238;28;20023;-77
2023/07/25 05:57:59;;;;;;;4.82;1.65;;;19.50;98.90;;;;;;5094083;28;20020;-73
2023/07/25 06:00:24;;;;;;;7.10;1.50;;;19.40;98.90;;;;;;5095008;28;20083;-77
2023/07/25 06:02:50;;;;;;;5.90;1.90;;;19.40;98.80;;;;;;5095081;28;20012;-76
2023/07/25 06:05:15;;;;;;;7.32;1.77;;;19.40;98.80;;;;;;5088340;28;20435;-70
2023/07/25 06:07:41;;;;;;;5.50;1.77;;;19.40;98.80;;;;;;5078259;28;20106;-72
2023/07/25 06:10:07;;;;;;;6.07;1.58;;;19.50;98.70;;;;;;5079910;28;20044;-68
2023/07/25 06:12:32;;;;;;;4.20;1.45;;;19.40;98.80;;;;;;5076379;28;20021;-68
2023/07/25 06:14:58;;;;;;;6.63;1.40;;;19.40;98.70;;;;;;5074181;28;20097;-72
2023/07/25 06:17:23;;;;;;;6.45;2.20;;;19.40;98.50;;;;;;5091195;28;20020;-70
2023/07/25 06:19:49;;;;;;;7.00;1.70;;;19.40;98.40;;;;;;5092833;28;20094;-68
2023/07/25 06:22:15;;;;;;;8.50;2.03;;;19.40;98.50;;;;;;5093943;28;20032;-70
2023/07/25 06:24:41;;;;;;;6.68;1.83;;;19.40;98.50;;;;;;5094913;28;20038;-75
2023/07/25 06:27:07;;;;;;;5.72;2.08;;;19.40;98.50;;;;;;5081266;28;20033;-73
2023/07/25 06:29:32;;;;;;;5.68;1.60;;;19.40;98.40;;;;;;5074286;28;20048;-70
2023/07/25 06:31:58;;;;;;;3.58;1.20;;;19.40;98.40;;;;;;5081114;28;20020;-68
2023/07/25 06:34:24;;;;;;;5.97;1.40;;;19.40;98.10;;;;;;5087203;28;20024;-68
2023/07/25 06:36:49;;;;;;;5.53;1.63;;;19.40;98.00;;;;;;5078900;28;20044;-68
2023/07/25 06:39:15;;;;;;;6.32;1.20;;;19.40;98.20;;;;;;5076683;28;20393;-68
2023/07/25 06:41:40;;;;;;;7.50;1.45;;;19.40;97.90;;;;;;5072426;28;20025;-70
2023/07/25 06:44:06;;;;;;;4.45;1.42;;;19.40;97.50;;;;;;5073639;28;20377;-71
2023/07/25 06:46:31;;;;;;;5.50;1.10;;;19.40;97.40;;;;;;5074815;28;20372;-68
2023/07/25 06:48:57;;;;;;;4.65;1.20;;;19.40;97.40;;;;;;5070946;28;20560;-69
2023/07/25 06:51:22;;;;;;;7.07;1.38;;;19.40;97.10;;;;;;5071852;28;20142;-70
2023/07/25 06:53:48;;;;;;;4.82;1.40;;;19.40;97.00;;;;;;5075906;28;20025;-70
2023/07/25 06:56:14;;;;;;;8.95;1.85;;;19.40;97.00;;;;;;5071916;28;20538;-70
2023/07/25 06:58:39;;;;;;;5.00;1.77;;;19.40;97.00;;;;;;5071897;28;20527;-70
2023/07/25 07:01:06;;;;;;;4.88;1.10;;;19.40;96.90;;;;;;5073647;28;20474;-70
2023/07/25 07:03:32;;;;;;;8.27;1.60;;;19.40;97.10;;;;;;5073595;28;20071;-70
2023/07/25 07:05:58;;;;;;;4.05;0.95;;;19.40;97.00;;;;;;5072865;28;20477;-70
2023/07/25 07:08:23;;;;;;;4.07;1.20;;;19.40;96.90;;;;;;5073846;28;20023;-71
2023/07/25 07:10:53;;;;;;;6.13;1.05;;;19.40;97.00;;;;;;5073899;28;20035;-70
2023/07/25 07:13:20;;;;;;;6.78;1.30;;;19.40;97.00;;;;;;5073166;28;20021;-70
2023/07/25 07:15:47;;;;;;;7.18;1.50;;;19.50;97.20;;;;;;5079403;28;20161;-70
2023/07/25 07:18:12;;;;;;;7.40;1.45;;;19.50;97.40;;;;;;5078527;28;20032;-70
2023/07/25 07:20:38;;;;;;;6.60;1.42;;;19.60;97.80;;;;;;5073282;28;20032;-70
2023/07/25 07:23:04;;;;;;;5.47;1.33;;;19.70;97.50;;;;;;5073554;28;20480;-70
2023/07/25 07:25:29;;;;;;;6.07;1.10;;;19.70;97.40;;;;;;5093656;28;20042;-71
2023/07/25 07:27:55;;;;;;;5.57;1.20;;;19.80;97.50;;;;;;5092275;28;20058;-71
2023/07/25 07:30:20;;;;;;;3.97;0.93;;;19.90;97.50;;;;;;5093275;28;20046;-71
2023/07/25 07:32:47;;;;;;;7.22;1.27;;;20.00;96.90;;;;;;5093582;28;20024;-70
2023/07/25 07:35:12;;;;;;;6.38;1.08;;;20.00;95.90;;;;;;5092973;28;20020;-71
2023/07/25 07:37:38;;;;;;;4.20;0.98;;;20.00;95.50;;;;;;5093594;28;20020;-70
2023/07/25 07:40:04;;;;;;;4.38;0.70;;;20.10;95.40;;;;;;5093370;28;20036;-70
2023/07/25 07:42:30;;;;;;;6.63;0.98;;;20.20;94.60;;;;;;5092111;28;20511;-69
2023/07/25 07:44:55;;;;;;;5.65;1.35;;;20.20;94.60;;;;;;5091982;28;20027;-69
2023/07/25 07:47:21;;;;;;;4.72;1.08;;;20.20;94.20;;;;;;5086199;28;20027;-68
2023/07/25 07:49:47;;;;;;;3.17;0.90;;;20.20;94.20;;;;;;5088467;28;20120;-72
2023/07/25 07:52:12;;;;;;;5.90;1.05;;;20.30;94.00;;;;;;5080164;28;20539;-71
2023/07/25 07:54:38;;;;;;;3.95;1.10;;;20.30;93.80;;;;;;5088235;28;20096;-65
2023/07/25 07:57:03;;;;;;;5.57;0.88;;;20.30;94.00;;;;;;5078581;28;20111;-69
2023/07/25 07:59:29;;;;;;;7.50;1.27;;;20.30;94.00;;;;;;5081378;28;20032;-69
2023/07/25 08:01:55;;;;;;;4.78;1.25;;;20.30;93.50;;;;;;5089681;28;20233;-69
2023/07/25 08:04:21;;;;;;;6.90;1.77;;;20.40;93.20;;;;;;5086134;28;20112;-66
2023/07/25 08:06:47;;;;;;;7.25;1.30;;;20.40;92.80;;;;;;5083512;28;20081;-70
2023/07/25 08:09:12;;;;;;;5.05;1.10;;;20.40;92.90;;;;;;5089425;28;20024;-71
2023/07/25 08:11:38;;;;;;;4.93;1.13;;;20.50;92.90;;;;;;5079695;28;20461;-68
2023/07/25 08:14:04;;;;;;;5.15;1.27;;;20.50;93.30;;;;;;5077276;28;20028;-69
2023/07/25 08:16:29;;;;;;;6.75;1.75;;;20.60;93.50;;;;;;5079732;28;20034;-69
2023/07/25 08:18:55;;;;;;;4.75;1.42;;;20.60;92.80;;;;;;5082360;28;20489;-68
2023/07/25 08:21:20;;;;;;;6.15;1.17;;;20.60;93.10;;;;;;5085028;28;20389;-70
2023/07/25 08:23:46;;;;;;;6.03;1.25;;;20.70;93.20;;;;;;5077805;28;20028;-72
2023/07/25 08:26:12;;;;;;;4.75;1.25;;;20.80;92.50;;;;;;5077703;28;20048;-70
2023/07/25 08:28:38;;;;;;;6.75;1.58;;;20.80;92.10;;;;;;5086404;28;20492;-73
2023/07/25 08:31:07;;;;;;;5.53;1.10;;;20.80;93.00;;;;;;5086215;28;20021;-71
2023/07/25 08:33:36;;;;;;;3.85;0.60;;;20.80;91.40;;;;;;5080793;28;20031;-69
2023/07/25 08:36:03;;;;;;;4.57;0.93;;;20.80;90.70;;;;;;5086835;28;20020;-69
2023/07/25 08:38:28;;;;;;;4.95;1.00;;;20.90;91.50;;;;;;5083206;28;20025;-69
2023/07/25 08:41:07;;;;;;;6.72;1.27;;;20.90;90.50;;;;;;5079025;28;20118;-69
2023/07/25 08:43:40;;;;;;;4.10;0.57;;;20.90;91.00;;;;;;5084760;28;20033;-69
2023/07/25 08:46:11;;;;;;;4.78;0.75;;;20.90;90.80;;;;;;5081078;28;20466;-68
2023/07/25 08:48:38;;;;;;;3.80;0.90;;;20.90;91.40;;;;;;5075436;28;20038;-68
2023/07/25 08:51:07;;;;;;;3.65;0.63;;;20.90;91.30;;;;;;5089705;28;20020;-70
2023/07/25 08:53:35;;;;;;;5.90;0.98;;;20.90;90.20;;;;;;5080646;28;20099;-68
2023/07/25 08:56:01;;;;;;;6.22;0.90;;;20.90;90.90;;;;;;5076359;28;20032;-67
2023/07/25 08:58:28;;;;;;;5.32;0.80;;;20.90;90.50;;;;;;5084370;28;20019;-67
2023/07/25 09:00:54;;;;;;;2.95;0.60;;;20.90;90.80;;;;;;5080825;28;20378;-70
2023/07/25 09:03:21;;;;;;;4.25;0.93;;;21.00;90.20;;;;;;5078279;28;20110;-68
2023/07/25 09:05:48;;;;;;;4.00;0.80;;;21.00;90.20;;;;;;5079323;28;20035;-68
2023/07/25 09:08:14;;;;;;;5.22;0.80;;;21.00;88.80;;;;;;5080043;28;20097;-69
2023/07/25 09:10:43;;;;;;;8.55;1.05;;;21.10;90.10;;;;;;5079916;28;20024;-68
2023/07/25 09:13:09;;;;;;;6.07;1.00;;;21.10;90.40;;;;;;5078107;28;20447;-69
2023/07/25 09:15:34;;;;;;;5.07;0.95;;;21.20;88.40;;;;;;5079054;28;20024;-68
2023/07/25 09:18:00;;;;;;;4.28;0.70;;;21.10;90.00;;;;;;5082044;28;20494;-68
2023/07/25 09:20:26;;;;;;;2.83;0.70;;;21.20;89.00;;;;;;5090533;28;20495;-68
2023/07/25 09:22:52;;;;;;;4.63;0.50;;;21.20;88.30;;;;;;5079058;28;20060;-67
2023/07/25 09:25:18;;;;;;;5.00;1.05;;;21.10;88.40;;;;;;5080062;28;20052;-68
2023/07/25 09:27:45;;;;;;;4.03;0.60;;;21.20;89.70;;;;;;5081155;28;20024;-68
2023/07/25 09:30:12;;;;;;;4.38;1.35;;;21.20;89.40;;;;;;5076839;28;20594;-67
2023/07/25 09:32:38;;;;;;;5.65;0.57;;;21.20;88.00;;;;;;5078493;28;20024;-67
2023/07/25 09:35:08;;;;;;;5.25;0.82;;;21.20;89.10;;;;;;5081654;28;20029;-67
2023/07/25 09:37:33;;;;;;;4.53;0.90;;;21.20;90.00;;;;;;5075629;28;20016;-67
2023/07/25 09:39:59;;;;;;;3.30;0.88;;;21.20;86.40;;;;;;5079902;28;20081;-68
2023/07/25 09:42:25;;;;;;;2.83;0.50;;;21.20;90.40;;;;;;5079598;28;20173;-68
2023/07/25 09:44:52;;;;;;;3.85;0.80;;;21.20;88.20;;;;;;5079829;28;20157;-66
2023/07/25 09:47:26;;;;;;;4.47;0.98;;;21.20;88.90;;;;;;5077773;28;20476;-68
2023/07/25 09:49:54;;;;;;;2.30;0.75;;;21.20;88.00;;;;;;5078686;28;20031;-68
2023/07/25 09:52:20;;;;;;;5.20;0.73;;;21.20;89.90;;;;;;5084915;28;20020;-70
2023/07/25 09:54:46;;;;;;;2.40;0.50;;;21.20;85.30;;;;;;5076663;28;20043;-67
2023/07/25 09:57:12;;;;;;;3.70;0.70;;;21.20;84.40;;;;;;5082779;28;20024;-67
2023/07/25 09:59:38;;;;;;;2.03;0.77;;;21.20;86.00;;;;;;5082978;28;20046;-68
2023/07/25 10:02:04;;;;;;;6.57;0.88;;;21.30;85.70;;;;;;5075487;28;20062;-68
2023/07/25 10:04:30;;;;;;;2.80;0.50;;;21.30;85.00;;;;;;5075912;28;20031;-67
2023/07/25 10:06:59;;;;;;;3.03;0.70;;;21.30;85.40;;;;;;5075419;28;20020;-68
2023/07/25 10:09:25;;;;;;;3.05;0.73;;;21.30;89.70;;;;;;5081615;28;20079;-67
2023/07/25 10:11:52;;;;;;;6.00;0.50;;;21.30;86.30;;;;;;5080504;28;20051;-67
2023/07/25 10:14:19;;;;;;;3.88;0.80;;;21.40;86.00;;;;;;5072503;28;20029;-67
2023/07/25 10:16:46;;;;;;;4.43;0.93;;;21.30;88.00;;;;;;5080811;28;20038;-67
2023/07/25 10:19:11;;;;;;;4.03;0.90;;;21.40;89.30;;;;;;5074553;28;20028;-67
2023/07/25 10:21:48;;;;;;;4.45;0.77;;;21.40;89.30;;;;;;5079247;28;20109;-68
2023/07/25 10:24:15;;;;;;;4.18;0.73;;;21.40;90.90;;;;;;5072393;28;20056;-68
2023/07/25 10:26:56;;;;;;;3.83;0.60;;;21.50;89.30;;;;;;5077714;28;20035;-67
2023/07/25 10:29:42;;;;;;;3.65;0.77;;;21.50;89.90;;;;;;5085660;28;20481;-67
2023/07/25 10:32:16;;;;;;;7.50;0.75;;;21.50;87.80;;;;;;5079558;28;20024;-67
2023/07/25 10:34:46;;;;;;;24.25;2.25;;;21.50;91.50;;;;;;5080786;28;20020;-72
2023/07/25 10:37:38;;;;;;;6.50;1.00;;;21.60;90.30;;;;;;5078398;28;20115;-68
2023/07/25 10:40:19;;;;;;;2.30;0.57;;;21.70;91.00;;;;;;5085395;28;20427;-68
2023/07/25 10:42:48;;;;;;;4.32;1.15;;;21.70;92.00;;;;;;5080618;28;20110;-68
2023/07/25 10:45:28;;;;;;;4.10;1.00;;;21.80;93.50;;;;;;5079759;28;20021;-67
2023/07/25 10:47:55;;;;;;;7.72;1.42;;;21.80;93.80;;;;;;5073445;28;20051;-69
2023/07/25 10:50:48;;;;;;;4.20;0.70;;;21.80;93.40;;;;;;5073481;28;20021;-69
2023/07/25 10:53:20;;;;;;;6.35;0.98;;;21.80;91.70;;;;;;5087530;28;20039;-72
2023/07/25 10:56:03;;;;;;;;;;;21.80;91.40;;;;;;5085130;28;20024;-68
2023/07/25 10:58:34;;;;;;;4.55;0.82;;;21.80;90.90;;;;;;5082162;28;19962;-67
2023/07/25 11:01:01;;;;;;;2.83;0.70;;;21.90;91.30;;;;;;5074995;28;20036;-67
2023/07/25 11:03:28;;;;;;;4.53;1.00;;;21.80;90.20;;;;;;5072869;28;20025;-67
2023/07/25 11:06:20;;;;;;;1.92;0.68;;;21.80;91.70;;;;;;5090085;28;20063;-68
2023/07/25 11:08:45;;;;;;;4.03;0.88;;;21.80;92.20;;;;;;5061284;28;20098;-67
2023/07/25 11:11:12;;;;;;;2.17;0.65;;;21.80;92.00;;;;;;5091532;28;20106;-67
2023/07/25 11:13:42;;;;;;;7.50;1.25;;;21.80;90.70;;;;;;5066876;28;20017;-66
2023/07/25 11:16:09;;;;;;;2.58;0.63;;;21.90;90.70;;;;;;5073554;28;20063;-67
2023/07/25 11:18:37;;;;;;;3.95;0.47;;;21.90;91.90;;;;;;5074404;28;20112;-69
2023/07/25 11:21:08;;;;;;;2.40;0.63;;;21.90;92.00;;;;;;5070586;28;20499;-70
2023/07/25 11:23:36;;;;;;;4.97;0.88;;;21.90;88.60;;;;;;5073048;28;20507;-68
2023/07/25 11:26:03;;;;;;;2.63;0.68;;;21.80;88.90;;;;;;5073983;28;20790;-71
2023/07/25 11:28:29;;;;;;;5.63;0.80;;;21.80;88.40;;;;;;5076334;28;20051;-71
2023/07/25 11:30:58;;;;;;;4.65;0.65;;;21.80;88.20;;;;;;5084721;28;20067;-69
2023/07/25 11:33:24;;;;;;;3.65;0.50;;;21.80;86.90;;;;;;5076853;28;20120;-68
2023/07/25 11:35:57;;;;;;;4.95;0.65;;;21.80;86.80;;;;;;5072486;28;20508;-68
2023/07/25 11:38:23;;;;;;;1.05;0.30;;;21.90;87.20;;;;;;5074054;28;20444;-69
2023/07/25 11:40:51;;;;;;;8.57;2.45;;;21.80;86.50;;;;;;5077631;28;20362;-69
2023/07/25 11:43:17;;;;;;;13.93;8.02;;;21.80;85.30;;;;;;5073234;28;20040;-72
2023/07/25 11:45:45;;;;;;;7.45;3.50;;;21.80;85.10;;;;;;5080576;28;20407;-73
2023/07/25 11:48:14;;;;;;;8.60;3.75;;;21.70;84.20;;;;;;5076208;28;20046;-73
2023/07/25 11:50:42;;;;;;;4.55;2.55;;;21.70;85.60;;;;;;5077874;28;20066;-72
2023/07/25 11:53:09;;;;;;;14.93;5.80;;;21.70;85.10;;;;;;5076253;28;20424;-73
2023/07/25 11:55:35;;;;;;;7.07;3.03;;;21.80;88.60;;;;;;5081360;28;20411;-72
2023/07/25 11:58:05;;;;;;;7.25;2.42;;;21.80;85.20;;;;;;5074905;28;20028;-72
2023/07/25 12:00:40;;;;;;;6.07;1.80;;;21.80;85.90;;;;;;5081817;28;20127;-73
2023/07/25 12:03:18;;;;;;;6.85;2.08;;;21.80;84.20;;;;;;5080645;28;20055;-73
2023/07/25 12:05:54;;;;;;;6.07;1.80;;;21.80;85.00;;;;;;5077826;28;20381;-71
2023/07/25 12:08:39;;;;;;;4.43;1.83;;;21.80;86.20;;;;;;5072960;28;20179;-77
2023/07/25 12:11:10;;;;;;;7.18;1.67;;;21.80;87.00;;;;;;5070054;28;20023;-75
2023/07/25 12:13:56;;;;;;;3.13;1.08;;;21.80;86.60;;;;;;5073323;28;20025;-75
2023/07/25 12:16:32;;;;;;;2.63;0.70;;;21.90;86.10;;;;;;5074181;28;20020;-72
2023/07/25 12:19:16;;;;;;;4.13;0.40;;;21.90;83.70;;;;;;5073267;28;20487;-77
2023/07/25 12:21:43;;;;;;;2.45;0.45;;;21.90;83.20;;;;;;5072468;28;20056;-77
2023/07/25 12:24:16;;;;;;;3.15;0.40;;;21.90;84.70;;;;;;5072422;28;20067;-76
2023/07/25 12:26:54;;;;;;;1.83;0.35;;;21.80;82.10;;;;;;5082990;28;20024;-76
2023/07/25 12:29:21;;;;;;;2.08;0.70;;;21.70;81.70;;;;;;5075121;28;20024;-71
2023/07/25 12:31:47;;;;;;;2.70;0.40;;;21.70;82.70;;;;;;5073046;28;20028;-71
2023/07/25 12:34:18;;;;;;;1.92;0.40;;;21.70;80.30;;;;;;5068638;28;20381;-76
2023/07/25 12:36:45;;;;;;;3.30;0.50;;;21.80;84.00;;;;;;5080654;28;20032;-72
2023/07/25 12:39:10;;;;;;;2.92;0.35;;;21.90;81.60;;;;;;5078136;28;20021;-71
2023/07/25 12:41:37;;;;;;;3.08;0.32;;;21.80;81.70;;;;;;5072772;28;20032;-72
2023/07/25 12:44:03;;;;;;;0.98;0.30;;;21.80;81.50;;;;;;5071586;28;20025;-71
2023/07/25 12:46:29;;;;;;;2.55;0.40;;;21.80;82.30;;;;;;5071005;28;20020;-75